createdAt,value
2023-09-23T00:01:16.421Z,98895.84
2023-09-23T00:04:02.188Z,98899.00
2023-09-23T00:06:49.970Z,98902.16
2023-09-23T00:09:37.002Z,98901.16
2023-09-23T00:12:22.203Z,98901.22
2023-09-23T00:15:08.341Z,98897.31
2023-09-23T00:17:55.668Z,98889.56
2023-09-23T00:20:41.513Z,98896.91
2023-09-23T00:23:26.025Z,98897.19
2023-09-23T00:26:12.094Z,98885.50
2023-09-23T00:28:56.838Z,98894.28
2023-09-23T00:31:44.051Z,98889.06
2023-09-23T00:34:29.676Z,98895.34
2023-09-23T00:37:15.536Z,98891.19
2023-09-23T00:40:01.572Z,98893.78
2023-09-23T00:42:49.113Z,98894.84
2023-09-23T00:45:35.041Z,98892.22
2023-09-23T00:48:21.352Z,98890.69
2023-09-23T00:51:07.919Z,98887.88
2023-09-23T00:53:52.915Z,98891.25
2023-09-23T00:56:38.258Z,98886.31
2023-09-23T00:59:24.196Z,98886.59
2023-09-23T01:02:10.138Z,98886.09
2023-09-23T01:04:56.075Z,98887.44
2023-09-23T01:07:40.778Z,98880.94
2023-09-23T01:10:26.014Z,98883.56
2023-09-23T01:13:11.542Z,98886.16
2023-09-23T01:15:57.578Z,98884.59
2023-09-23T01:18:46.005Z,98891.63
2023-09-23T01:21:32.299Z,98894.75
2023-09-23T01:24:18.321Z,98891.38
2023-09-23T01:27:04.408Z,98888.25
2023-09-23T01:29:53.248Z,98894.03
2023-09-23T01:32:46.603Z,98898.81
2023-09-23T01:35:32.021Z,98897.53
2023-09-23T01:38:17.109Z,98906.69
2023-09-23T01:41:04.591Z,98903.56
2023-09-23T01:43:49.764Z,98904.06
2023-09-23T01:46:35.814Z,98908.50
2023-09-23T01:49:21.012Z,98916.59
2023-09-23T01:52:06.098Z,98908.78
2023-09-23T01:54:51.221Z,98914.03
2023-09-23T01:57:36.637Z,98904.66
2023-09-23T02:00:46.553Z,98907.25
2023-09-23T02:03:32.105Z,98911.19
2023-09-23T02:06:18.001Z,98911.75
2023-09-23T02:09:03.104Z,98914.34
2023-09-23T02:11:48.731Z,98916.44
2023-09-23T02:14:33.807Z,98916.72
2023-09-23T02:17:20.708Z,98922.19
2023-09-23T02:20:20.281Z,98915.69
2023-09-23T02:23:06.567Z,98914.16
2023-09-23T02:25:52.336Z,98918.56
2023-09-23T02:28:37.467Z,98919.88
2023-09-23T02:31:22.334Z,98919.34
2023-09-23T02:34:10.674Z,98924.81
2023-09-23T02:36:55.824Z,98925.19
2023-09-23T02:39:42.505Z,98925.72
2023-09-23T02:42:28.580Z,98927.06
2023-09-23T02:45:15.546Z,98921.63
2023-09-23T02:48:00.498Z,98914.41
2023-09-23T02:50:45.438Z,98916.22
2023-09-23T02:53:31.421Z,98916.75
2023-09-23T02:56:16.790Z,98920.97
2023-09-23T02:59:12.152Z,98918.66
2023-09-23T03:01:58.638Z,98920.97
2023-09-23T03:04:44.348Z,98922.25
2023-09-23T03:07:33.739Z,98920.94
2023-09-23T03:10:20.376Z,98911.03
2023-09-23T03:13:12.037Z,98914.16
2023-09-23T03:16:09.781Z,98917.75
2023-09-23T03:19:10.505Z,98913.81
2023-09-23T03:21:56.979Z,98907.84
2023-09-23T03:24:41.761Z,98911.22
2023-09-23T03:27:28.932Z,98904.22
2023-09-23T03:30:14.396Z,98903.19
2023-09-23T03:33:00.638Z,98900.88
2023-09-23T03:35:45.748Z,98904.78
2023-09-23T03:38:32.932Z,98896.72
2023-09-23T03:41:18.218Z,98902.72
2023-09-23T03:44:07.962Z,98905.06
2023-09-23T03:46:54.484Z,98912.13
2023-09-23T03:49:41.059Z,98913.44
2023-09-23T03:52:26.247Z,98920.69
2023-09-23T03:55:14.337Z,98913.66
2023-09-23T03:58:01.428Z,98925.63
2023-09-23T04:00:46.424Z,98937.28
2023-09-23T04:03:34.691Z,98942.94
2023-09-23T04:06:20.136Z,98935.63
2023-09-23T04:09:10.367Z,98935.09
2023-09-23T04:11:55.428Z,98923.38
2023-09-23T04:14:40.393Z,98931.41
2023-09-23T04:17:25.806Z,98935.00
2023-09-23T04:20:11.394Z,98942.53
2023-09-23T04:22:56.567Z,98941.69
2023-09-23T04:25:42.796Z,98943.44
2023-09-23T04:28:27.864Z,98944.88
2023-09-23T04:31:13.678Z,98955.19
2023-09-23T04:33:59.646Z,98952.91
2023-09-23T04:36:47.383Z,98950.66
2023-09-23T04:39:32.578Z,98951.81
2023-09-23T04:42:18.257Z,98956.91
2023-09-23T04:45:04.221Z,98955.78
2023-09-23T04:47:52.289Z,98964.31
2023-09-23T04:50:40.268Z,98963.25
2023-09-23T04:53:25.419Z,98969.16
2023-09-23T04:56:10.893Z,98950.91
2023-09-23T04:58:59.146Z,98958.47
2023-09-23T05:01:45.092Z,98956.06
2023-09-23T05:04:32.036Z,98951.78
2023-09-23T05:07:17.094Z,98950.56
2023-09-23T05:10:02.334Z,98962.16
2023-09-23T05:12:47.330Z,98965.31
2023-09-23T05:15:32.388Z,98979.41
2023-09-23T05:18:18.124Z,98987.25
2023-09-23T05:21:03.059Z,98981.47
2023-09-23T05:23:50.130Z,98984.63
2023-09-23T05:26:34.930Z,98980.66
2023-09-23T05:29:21.255Z,98981.47
2023-09-23T05:32:06.234Z,98983.81
2023-09-23T05:34:53.547Z,98976.16
2023-09-23T05:37:40.031Z,98977.31
2023-09-23T05:40:27.925Z,98987.31
2023-09-23T05:43:12.951Z,99003.28
2023-09-23T05:45:57.927Z,98992.63
2023-09-23T05:48:42.864Z,98996.31
2023-09-23T05:51:27.931Z,98995.53
2023-09-23T05:54:12.818Z,99009.00
2023-09-23T05:56:57.837Z,99003.47
2023-09-23T05:59:43.012Z,99002.28
2023-09-23T06:02:27.869Z,99003.88
2023-09-23T06:05:14.412Z,99004.44
2023-09-23T06:07:59.246Z,99008.59
2023-09-23T06:10:44.168Z,99011.28
2023-09-23T06:13:29.064Z,99008.97
2023-09-23T06:16:17.112Z,99003.31
2023-09-23T06:19:02.286Z,99027.78
2023-09-23T06:21:48.011Z,99022.28
2023-09-23T06:24:32.521Z,99027.88
2023-09-23T06:27:17.729Z,99023.00
2023-09-23T06:30:03.412Z,99024.59
2023-09-23T06:32:48.636Z,99033.22
2023-09-23T06:35:33.498Z,99027.22
2023-09-23T06:38:18.652Z,99023.03
2023-09-23T06:41:03.791Z,99015.72
2023-09-23T06:43:49.080Z,99015.91
2023-09-23T06:46:34.584Z,99017.47
2023-09-23T06:49:19.778Z,99024.09
2023-09-23T06:52:04.408Z,99026.19
2023-09-23T06:54:49.692Z,99029.06
2023-09-23T06:57:37.271Z,99032.59
2023-09-23T07:00:22.159Z,99021.41
2023-09-23T07:03:07.805Z,99026.59
2023-09-23T07:05:53.359Z,99036.97
2023-09-23T07:08:38.180Z,99027.94
2023-09-23T07:11:24.262Z,99025.94
2023-09-23T07:14:09.311Z,99029.41
2023-09-23T07:16:56.394Z,99032.25
2023-09-23T07:19:41.532Z,99043.34
2023-09-23T07:22:26.422Z,99044.06
2023-09-23T07:25:11.552Z,99043.28
2023-09-23T07:28:00.191Z,99047.06
2023-09-23T07:30:45.080Z,99047.50
2023-09-23T07:33:30.182Z,99050.41
2023-09-23T07:36:15.385Z,99054.94
2023-09-23T07:39:00.288Z,99047.00
2023-09-23T07:41:45.173Z,99043.81
2023-09-23T07:44:30.213Z,99040.50
2023-09-23T07:47:15.388Z,99033.81
2023-09-23T07:50:00.524Z,99034.53
2023-09-23T07:52:45.504Z,99026.06
2023-09-23T07:55:30.848Z,99031.56
2023-09-23T07:58:16.017Z,99037.13
2023-09-23T08:01:01.077Z,99038.47
2023-09-23T08:03:46.156Z,99040.28
2023-09-23T08:06:31.055Z,99036.91
2023-09-23T08:09:16.055Z,99049.66
2023-09-23T08:12:01.248Z,99055.16
2023-09-23T08:14:46.130Z,99049.72
2023-09-23T08:17:32.019Z,99065.06
2023-09-23T08:20:24.530Z,99066.97
2023-09-23T08:23:09.603Z,99055.81
2023-09-23T08:25:56.742Z,99058.59
2023-09-23T08:28:42.853Z,99054.56
2023-09-23T08:31:27.883Z,99047.16
2023-09-23T08:34:13.104Z,99054.03
2023-09-23T08:36:57.996Z,99055.00
2023-09-23T08:39:43.305Z,99045.63
2023-09-23T08:42:28.266Z,99044.50
2023-09-23T08:45:14.031Z,99037.56
2023-09-23T08:47:59.493Z,99038.97
2023-09-23T08:50:47.342Z,99037.16
2023-09-23T08:53:39.383Z,99033.00
2023-09-23T08:56:24.289Z,99027.00
2023-09-23T08:59:11.949Z,99034.03
2023-09-23T09:01:56.866Z,99035.63
2023-09-23T09:04:42.297Z,99034.34
2023-09-23T09:07:34.896Z,99033.94
2023-09-23T09:10:20.029Z,99036.81
2023-09-23T09:13:06.260Z,99039.47
2023-09-23T09:15:52.071Z,99035.53
2023-09-23T09:18:37.794Z,99039.78
2023-09-23T09:21:22.796Z,99038.88
2023-09-23T09:24:09.609Z,99040.81
2023-09-23T09:26:55.035Z,99044.69
2023-09-23T09:29:43.879Z,99037.47
2023-09-23T09:32:30.611Z,99029.63
2023-09-23T09:35:19.380Z,99037.91
2023-09-23T09:38:17.432Z,99041.47
2023-09-23T09:41:05.251Z,99050.72
2023-09-23T09:43:51.550Z,99046.41
2023-09-23T09:46:40.083Z,99050.09
2023-09-23T09:49:26.683Z,99045.94
2023-09-23T09:52:13.830Z,99059.38
2023-09-23T09:55:02.728Z,99049.41
2023-09-23T09:57:51.364Z,99053.84
2023-09-23T10:00:43.903Z,99059.75
2023-09-23T10:03:29.310Z,99061.44
2023-09-23T10:06:23.070Z,99053.56
2023-09-23T10:09:15.048Z,99049.03
2023-09-23T10:12:02.844Z,99044.16
2023-09-23T10:14:55.243Z,99035.75
2023-09-23T10:17:43.891Z,99050.63
2023-09-23T10:20:33.763Z,99057.84
2023-09-23T10:23:20.903Z,99051.72
2023-09-23T10:26:16.948Z,99043.00
2023-09-23T10:29:04.481Z,99038.41
2023-09-23T10:31:49.638Z,99046.03
2023-09-23T10:34:47.810Z,99043.75
2023-09-23T10:37:33.775Z,99025.66
2023-09-23T10:40:20.800Z,99027.31
2023-09-23T10:43:08.445Z,99035.22
2023-09-23T10:45:54.523Z,99028.81
2023-09-23T10:48:40.817Z,99025.34
2023-09-23T10:51:26.737Z,99030.25
2023-09-23T10:54:13.964Z,99019.94
2023-09-23T10:57:00.747Z,99017.38
2023-09-23T10:59:46.601Z,99010.84
2023-09-23T11:02:31.719Z,99007.69
2023-09-23T11:05:17.197Z,99013.47
2023-09-23T11:08:02.955Z,99008.34
2023-09-23T11:10:49.896Z,99005.88
2023-09-23T11:13:34.994Z,98997.69
2023-09-23T11:16:22.806Z,98998.72
2023-09-23T11:19:08.126Z,98992.66
2023-09-23T11:21:53.164Z,98999.31
2023-09-23T11:24:40.232Z,98979.56
2023-09-23T11:27:26.065Z,98979.75
2023-09-23T11:30:11.849Z,98976.22
2023-09-23T11:32:57.043Z,98984.97
2023-09-23T11:35:52.004Z,98981.94
2023-09-23T11:38:39.092Z,98988.03
2023-09-23T11:41:24.065Z,98990.41
2023-09-23T11:44:10.535Z,98981.28
2023-09-23T11:46:55.868Z,98975.16
2023-09-23T11:49:41.053Z,98981.47
2023-09-23T11:52:26.082Z,98973.88
2023-09-23T11:55:13.032Z,98959.34
2023-09-23T11:57:58.483Z,98955.84
2023-09-23T12:00:43.352Z,98956.81
2023-09-23T12:03:28.316Z,98952.06
2023-09-23T12:06:13.333Z,98958.97
2023-09-23T12:08:58.250Z,98959.41
2023-09-23T12:11:43.137Z,98957.84
2023-09-23T12:14:28.076Z,98970.38
2023-09-23T12:17:16.677Z,98958.44
2023-09-23T12:20:03.331Z,98967.97
2023-09-23T12:22:48.519Z,98953.44
2023-09-23T12:25:33.246Z,98954.03
2023-09-23T12:28:18.555Z,98945.75
2023-09-23T12:31:03.430Z,98946.72
2023-09-23T12:33:48.176Z,98955.09
2023-09-23T12:36:33.400Z,98955.31
2023-09-23T12:39:18.465Z,98959.47
2023-09-23T12:42:03.538Z,98958.72
2023-09-23T12:44:48.358Z,98960.47
2023-09-23T12:50:21.944Z,98956.25
2023-09-23T12:53:06.766Z,98954.72
2023-09-23T12:55:51.874Z,98946.72
2023-09-23T12:58:37.586Z,98949.22
2023-09-23T13:01:22.636Z,98950.19
2023-09-23T13:04:07.562Z,98948.19
2023-09-23T13:06:52.696Z,98952.88
2023-09-23T13:09:37.456Z,98954.84
2023-09-23T13:12:22.699Z,98955.91
2023-09-23T13:15:08.518Z,98955.16
2023-09-23T13:17:54.048Z,98956.69
2023-09-23T13:20:39.473Z,98964.09
2023-09-23T13:23:24.388Z,98955.19
2023-09-23T13:26:09.334Z,98962.66
2023-09-23T13:28:54.489Z,98966.00
2023-09-23T13:31:39.666Z,98970.34
2023-09-23T13:34:25.183Z,98966.50
2023-09-23T13:37:10.022Z,98964.72
2023-09-23T13:39:57.606Z,98958.25
2023-09-23T13:42:42.431Z,98964.00
2023-09-23T13:45:27.601Z,98971.06
2023-09-23T13:48:12.561Z,98967.63
2023-09-23T13:50:57.470Z,98962.97
2023-09-23T13:53:42.453Z,98963.72
2023-09-23T13:56:27.265Z,98964.75
2023-09-23T13:59:12.919Z,98962.44
2023-09-23T14:01:58.338Z,98959.88
2023-09-23T14:04:43.453Z,98951.63
2023-09-23T14:07:28.378Z,98950.47
2023-09-23T14:10:21.372Z,98953.13
2023-09-23T14:13:07.245Z,98949.97
2023-09-23T14:15:52.275Z,98952.88
2023-09-23T14:18:37.282Z,98941.19
2023-09-23T14:21:22.266Z,98943.91
2023-09-23T14:24:08.006Z,98942.38
2023-09-23T14:26:52.980Z,98943.59
2023-09-23T14:29:38.312Z,98939.69
2023-09-23T14:32:23.158Z,98938.13
2023-09-23T14:35:08.569Z,98936.16
2023-09-23T14:37:53.781Z,98933.75
2023-09-23T14:40:38.895Z,98930.00
2023-09-23T14:43:23.778Z,98928.78
2023-09-23T14:46:08.697Z,98928.03
2023-09-23T14:48:53.847Z,98921.56
2023-09-23T14:51:39.031Z,98923.50
2023-09-23T14:54:24.032Z,98921.34
2023-09-23T14:57:09.206Z,98920.41
2023-09-23T14:59:54.161Z,98924.78
2023-09-23T15:02:39.340Z,98919.41
2023-09-23T15:05:24.389Z,98926.50
2023-09-23T15:08:09.138Z,98912.47
2023-09-23T15:10:54.195Z,98918.47
2023-09-23T15:13:39.575Z,98924.84
2023-09-23T15:16:24.848Z,98929.00
2023-09-23T15:19:10.053Z,98930.09
2023-09-23T15:21:55.236Z,98937.69
2023-09-23T15:24:44.317Z,98933.22
2023-09-23T15:27:29.468Z,98945.03
2023-09-23T15:30:14.713Z,98947.69
2023-09-23T15:32:59.710Z,98951.88
2023-09-23T15:35:45.493Z,98952.28
2023-09-23T15:38:30.631Z,98948.13
2023-09-23T15:41:15.752Z,98952.41
2023-09-23T15:44:00.593Z,98950.31
2023-09-23T15:46:45.669Z,98940.22
2023-09-23T15:49:31.079Z,98947.88
2023-09-23T15:52:29.089Z,98937.53
2023-09-23T15:55:16.174Z,98937.38
2023-09-23T15:58:01.802Z,98942.03
2023-09-23T16:00:47.040Z,98945.91
2023-09-23T16:03:33.352Z,98950.53
2023-09-23T16:06:18.452Z,98948.66
2023-09-23T16:09:04.484Z,98946.13
2023-09-23T16:11:49.238Z,98952.28
2023-09-23T16:14:35.875Z,98963.44
2023-09-23T16:17:21.101Z,98967.84
2023-09-23T16:20:06.877Z,98963.88
2023-09-23T16:22:52.772Z,98968.84
2023-09-23T16:25:38.328Z,98978.16
2023-09-23T16:28:24.178Z,98980.84
2023-09-23T16:31:08.958Z,98989.97
2023-09-23T16:33:54.898Z,98994.59
2023-09-23T16:36:41.671Z,98991.06
2023-09-23T16:39:26.453Z,98998.75
2023-09-23T16:42:11.431Z,99005.41
2023-09-23T16:44:56.415Z,98997.25
2023-09-23T16:47:41.902Z,99009.75
2023-09-23T16:50:26.762Z,99000.31
2023-09-23T16:53:12.013Z,99001.59
2023-09-23T16:55:56.946Z,99009.28
2023-09-23T16:58:41.834Z,99015.78
2023-09-23T17:01:27.218Z,99014.53
2023-09-23T17:04:12.229Z,99026.13
2023-09-23T17:06:57.366Z,99025.19
2023-09-23T17:09:42.819Z,99027.97
2023-09-23T17:12:28.137Z,99033.97
2023-09-23T17:15:13.176Z,99034.44
2023-09-23T17:17:57.710Z,99031.19
2023-09-23T17:20:43.378Z,99034.53
2023-09-23T17:23:28.451Z,99034.06
2023-09-23T17:26:13.601Z,99033.72
2023-09-23T17:28:59.914Z,99040.53
2023-09-23T17:31:46.355Z,99033.59
2023-09-23T17:34:33.653Z,99037.88
2023-09-23T17:37:18.870Z,99038.00
2023-09-23T17:40:04.232Z,99039.22
2023-09-23T17:42:49.431Z,99048.19
2023-09-23T17:45:36.568Z,99050.94
2023-09-23T17:48:22.296Z,99046.88
2023-09-23T17:51:07.632Z,99053.06
2023-09-23T17:53:52.891Z,99049.31
2023-09-23T17:56:38.316Z,99047.44
2023-09-23T17:59:23.217Z,99050.47
2023-09-23T18:02:09.371Z,99057.53
2023-09-23T18:04:54.034Z,99059.75
2023-09-23T18:07:39.446Z,99054.75
2023-09-23T18:10:24.276Z,99061.94
2023-09-23T18:13:09.219Z,99062.38
2023-09-23T18:15:54.440Z,99059.41
2023-09-23T18:18:43.922Z,99051.56
2023-09-23T18:21:28.700Z,99060.88
2023-09-23T18:24:13.861Z,99061.09
2023-09-23T18:26:58.954Z,99060.16
2023-09-23T18:29:43.950Z,99054.72
2023-09-23T18:32:29.324Z,99054.56
2023-09-23T18:35:14.329Z,99049.91
2023-09-23T18:37:59.416Z,99062.22
2023-09-23T18:40:45.060Z,99059.13
2023-09-23T18:43:30.276Z,99066.00
2023-09-23T18:46:15.769Z,99070.00
2023-09-23T18:49:01.168Z,99064.84
2023-09-23T18:51:46.148Z,99066.88
2023-09-23T18:54:32.250Z,99066.88
2023-09-23T18:57:17.150Z,99061.44
2023-09-23T19:00:01.875Z,99073.78
2023-09-23T19:02:47.412Z,99077.56
2023-09-23T19:05:32.445Z,99079.50
2023-09-23T19:08:17.719Z,99084.06
2023-09-23T19:11:03.527Z,99087.56
2023-09-23T19:13:49.105Z,99083.78
2023-09-23T19:16:34.220Z,99078.66
2023-09-23T19:19:19.195Z,99087.34
2023-09-23T19:22:04.847Z,99081.47
2023-09-23T19:24:51.059Z,99078.91
2023-09-23T19:27:36.653Z,99077.38
2023-09-23T19:30:21.498Z,99084.22
2023-09-23T19:33:06.440Z,99082.00
2023-09-23T19:35:51.851Z,99087.31
2023-09-23T19:38:37.215Z,99086.06
2023-09-23T19:41:22.627Z,99085.56
2023-09-23T19:44:07.670Z,99093.66
2023-09-23T19:46:52.890Z,99093.75
2023-09-23T19:49:37.853Z,99088.03
2023-09-23T19:52:22.956Z,99083.97
2023-09-23T19:55:08.629Z,99088.41
2023-09-23T19:57:53.563Z,99085.78
2023-09-23T20:00:38.573Z,99092.09
2023-09-23T20:03:23.971Z,99088.69
2023-09-23T20:06:09.826Z,99090.31
2023-09-23T20:08:54.807Z,99091.19
2023-09-23T20:11:39.702Z,99087.03
2023-09-23T20:14:24.763Z,99082.66
2023-09-23T20:17:11.623Z,99082.16
2023-09-23T20:19:56.660Z,99078.78
2023-09-23T20:22:43.010Z,99064.44
2023-09-23T20:25:29.130Z,99071.22
2023-09-23T20:28:14.224Z,99070.75
2023-09-23T20:30:59.876Z,99069.97
2023-09-23T20:33:45.015Z,99065.53
2023-09-23T20:36:30.344Z,99077.31
2023-09-23T20:39:16.067Z,99077.09
2023-09-23T20:42:01.251Z,99079.22
2023-09-23T20:44:46.029Z,99076.41
2023-09-23T20:47:31.587Z,99078.63
2023-09-23T20:50:16.474Z,99076.28
2023-09-23T20:53:01.458Z,99079.44
2023-09-23T20:55:46.405Z,99072.19
2023-09-23T20:58:31.387Z,99073.53
2023-09-23T21:01:16.596Z,99067.81
2023-09-23T21:04:01.511Z,99062.41
2023-09-23T21:06:46.510Z,99066.34
2023-09-23T21:09:31.320Z,99065.56
2023-09-23T21:12:16.447Z,99063.22
2023-09-23T21:15:01.423Z,99068.75
2023-09-23T21:17:46.974Z,99067.19
2023-09-23T21:20:32.319Z,99063.31
2023-09-23T21:23:16.966Z,99060.28
2023-09-23T21:26:02.271Z,99066.81
2023-09-23T21:28:48.001Z,99060.31
2023-09-23T21:31:33.832Z,99058.75
2023-09-23T21:34:18.686Z,99060.31
2023-09-23T21:37:03.744Z,99061.38
2023-09-23T21:39:48.756Z,99056.50
2023-09-23T21:42:34.038Z,99058.34
2023-09-23T21:45:19.179Z,99053.69
2023-09-23T21:48:04.393Z,99063.63
2023-09-23T21:50:58.041Z,99059.19
2023-09-23T21:53:43.208Z,99063.41
2023-09-23T21:56:41.570Z,99063.69
2023-09-23T21:59:28.946Z,99053.81
2023-09-23T22:02:14.390Z,99061.94
2023-09-23T22:04:59.346Z,99055.16
2023-09-23T22:07:44.427Z,99060.94
2023-09-23T22:10:29.650Z,99061.22
2023-09-23T22:13:14.599Z,99062.28
2023-09-23T22:15:59.653Z,99064.66
2023-09-23T22:18:45.230Z,99062.03
2023-09-23T22:21:32.250Z,99063.91
2023-09-23T22:24:17.225Z,99063.38
2023-09-23T22:27:04.897Z,99061.84
2023-09-23T22:29:50.112Z,99070.47
2023-09-23T22:32:34.742Z,99073.34
2023-09-23T22:35:19.749Z,99066.06
2023-09-23T22:38:04.626Z,99067.69
2023-09-23T22:40:50.366Z,99066.06
2023-09-23T22:43:34.967Z,99066.72
2023-09-23T22:46:20.097Z,99063.94
2023-09-23T22:49:06.096Z,99058.91
2023-09-23T22:51:52.600Z,99064.41
2023-09-23T22:54:37.648Z,99066.72
2023-09-23T22:57:22.713Z,99077.16
2023-09-23T23:00:12.788Z,99077.47
2023-09-23T23:02:58.107Z,99082.44
2023-09-23T23:05:43.660Z,99084.78
2023-09-23T23:08:28.828Z,99081.94
2023-09-23T23:11:14.052Z,99087.47
2023-09-23T23:13:58.924Z,99085.94
2023-09-23T23:16:44.186Z,99084.38
2023-09-23T23:19:28.999Z,99086.78
2023-09-23T23:22:14.135Z,99083.66
2023-09-23T23:24:59.212Z,99090.25
2023-09-23T23:27:48.002Z,99096.25
2023-09-23T23:30:33.068Z,99096.31
2023-09-23T23:33:17.943Z,99092.94
2023-09-23T23:36:03.233Z,99106.25
2023-09-23T23:38:48.385Z,99114.88
2023-09-23T23:41:33.816Z,99121.66
2023-09-23T23:44:20.623Z,99117.72
2023-09-23T23:47:07.495Z,99119.78
2023-09-23T23:49:54.515Z,99113.56
2023-09-23T23:52:39.723Z,99119.28
2023-09-23T23:55:26.809Z,99124.25
2023-09-23T23:58:13.313Z,99120.63
